createdAt,value
2022-09-25T00:01:12.047Z,99.90
2022-09-25T00:03:40.283Z,99.90
2022-09-25T00:06:17.795Z,99.90
2022-09-25T00:08:45.587Z,99.90
2022-09-25T00:11:19.650Z,99.90
2022-09-25T00:13:47.496Z,99.90
2022-09-25T00:16:17.753Z,99.90
2022-09-25T00:19:04.187Z,99.90
2022-09-25T00:21:33.284Z,99.90
2022-09-25T00:24:09.614Z,99.90
2022-09-25T00:26:40.269Z,99.90
2022-09-25T00:29:09.140Z,99.90
2022-09-25T00:31:36.551Z,99.90
2022-09-25T00:34:05.601Z,99.90
2022-09-25T00:36:34.078Z,99.90
2022-09-25T00:39:01.671Z,99.90
2022-09-25T00:41:31.928Z,99.90
2022-09-25T00:44:01.046Z,99.90
2022-09-25T00:46:31.605Z,99.90
2022-09-25T00:49:34.771Z,99.90
2022-09-25T00:52:13.775Z,99.90
2022-09-25T00:55:07.088Z,99.90
2022-09-25T00:57:38.186Z,99.90
2022-09-25T01:00:12.080Z,99.90
2022-09-25T01:02:43.483Z,99.90
2022-09-25T01:05:18.357Z,99.90
2022-09-25T01:07:49.737Z,99.90
2022-09-25T01:10:19.677Z,99.90
2022-09-25T01:12:49.116Z,99.90
2022-09-25T01:15:19.375Z,99.90
2022-09-25T01:18:23.763Z,99.90
2022-09-25T01:21:20.656Z,99.90
2022-09-25T01:24:00.089Z,99.90
2022-09-25T01:27:06.409Z,99.90
2022-09-25T01:29:44.320Z,99.90
2022-09-25T01:32:23.727Z,99.90
2022-09-25T01:35:05.770Z,99.90
2022-09-25T01:37:59.896Z,99.90
2022-09-25T01:40:35.235Z,99.90
2022-09-25T01:43:26.794Z,99.90
2022-09-25T01:45:58.903Z,99.90
2022-09-25T01:48:30.172Z,99.90
2022-09-25T01:51:00.297Z,99.90
2022-09-25T01:53:42.543Z,99.90
2022-09-25T01:56:23.304Z,99.90
2022-09-25T01:58:56.835Z,99.90
2022-09-25T02:01:30.192Z,99.90
2022-09-25T02:04:08.824Z,99.90
2022-09-25T02:06:40.460Z,99.90
2022-09-25T02:09:21.946Z,99.90
2022-09-25T02:11:54.749Z,99.90
2022-09-25T02:14:39.199Z,99.90
2022-09-25T02:17:11.110Z,99.90
2022-09-25T02:19:58.101Z,99.90
2022-09-25T02:22:34.473Z,99.90
2022-09-25T02:25:18.009Z,99.90
2022-09-25T02:27:46.388Z,99.90
2022-09-25T02:30:13.929Z,99.90
2022-09-25T02:32:41.439Z,99.90
2022-09-25T02:37:37.284Z,99.90
2022-09-25T02:40:05.598Z,99.90
2022-09-25T02:45:06.955Z,99.90
2022-09-25T02:52:57.694Z,99.90
2022-09-25T02:55:34.268Z,99.90
2022-09-25T02:58:01.651Z,99.90
2022-09-25T03:00:30.339Z,99.90
2022-09-25T03:03:00.100Z,99.90
2022-09-25T03:10:46.084Z,99.90
2022-09-25T03:13:19.309Z,99.90
2022-09-25T03:15:52.724Z,99.90
2022-09-25T03:18:20.179Z,99.90
2022-09-25T03:20:47.668Z,99.90
2022-09-25T03:23:15.463Z,99.90
2022-09-25T03:25:49.012Z,99.90
2022-09-25T03:31:03.676Z,99.90
2022-09-25T03:33:39.566Z,99.90
2022-09-25T03:36:19.003Z,99.90
2022-09-25T03:38:49.251Z,99.90
2022-09-25T03:41:21.045Z,99.90
2022-09-25T03:43:51.779Z,99.90
2022-09-25T03:46:22.082Z,99.90
2022-09-25T03:48:50.057Z,99.90
2022-09-25T03:51:18.699Z,99.90
2022-09-25T03:53:47.409Z,99.90
2022-09-25T03:56:18.058Z,99.90
2022-09-25T03:58:46.145Z,99.90
2022-09-25T04:01:14.924Z,99.90
2022-09-25T04:03:47.139Z,99.90
2022-09-25T04:06:18.302Z,99.90
2022-09-25T04:08:47.483Z,99.90
2022-09-25T04:11:16.974Z,99.90
2022-09-25T04:16:14.399Z,99.90
2022-09-25T04:18:43.044Z,99.90
2022-09-25T04:21:12.578Z,99.90
2022-09-25T04:26:09.116Z,99.90
2022-09-25T04:28:37.135Z,99.90
2022-09-25T04:33:47.883Z,99.90
2022-09-25T04:36:17.146Z,99.90
2022-09-25T04:38:44.864Z,99.90
2022-09-25T04:41:12.400Z,99.90
2022-09-25T04:43:41.328Z,99.90
2022-09-25T04:46:12.412Z,99.90
2022-09-25T04:48:46.136Z,99.90
2022-09-25T04:51:13.655Z,99.90
2022-09-25T04:56:15.392Z,99.90
2022-09-25T04:58:48.451Z,99.90
2022-09-25T05:01:17.940Z,99.90
2022-09-25T05:03:52.467Z,99.90
2022-09-25T05:06:20.282Z,99.90
2022-09-25T05:08:49.743Z,99.90
2022-09-25T05:11:17.542Z,99.90
2022-09-25T05:13:46.486Z,99.90
2022-09-25T05:16:14.178Z,99.90
2022-09-25T05:18:41.762Z,99.90
2022-09-25T05:26:04.984Z,99.90
2022-09-25T05:28:33.362Z,99.90
2022-09-25T05:31:03.586Z,99.90
2022-09-25T05:33:33.022Z,99.90
2022-09-25T05:36:05.246Z,99.90
2022-09-25T05:38:34.344Z,99.90
2022-09-25T05:41:06.853Z,99.90
2022-09-25T05:43:40.134Z,99.90
2022-09-25T05:48:36.084Z,99.90
2022-09-25T05:53:31.631Z,99.90
2022-09-25T05:56:01.834Z,99.90
2022-09-25T05:58:30.967Z,99.90
2022-09-25T06:01:03.735Z,99.90
2022-09-25T06:03:31.945Z,99.90
2022-09-25T06:06:00.691Z,99.90
2022-09-25T06:08:31.141Z,99.90
2022-09-25T06:11:01.282Z,99.90
2022-09-25T06:15:59.403Z,99.90
2022-09-25T06:18:27.683Z,99.90
2022-09-25T06:21:02.641Z,99.90
2022-09-25T06:23:30.733Z,99.90
2022-09-25T06:26:02.864Z,99.90
2022-09-25T06:28:31.023Z,99.90
2022-09-25T06:31:01.860Z,99.90
2022-09-25T06:33:32.792Z,99.90
2022-09-25T06:36:00.899Z,99.90
2022-09-25T06:38:28.434Z,99.90
2022-09-25T06:40:59.485Z,99.90
2022-09-25T06:43:27.897Z,99.90
2022-09-25T06:45:55.403Z,99.90
2022-09-25T06:48:23.006Z,99.90
2022-09-25T06:50:52.783Z,99.90
2022-09-25T06:53:21.488Z,99.90
2022-09-25T06:55:49.904Z,99.90
2022-09-25T06:58:20.536Z,99.90
2022-09-25T07:00:49.647Z,99.90
2022-09-25T07:03:35.623Z,99.90
2022-09-25T07:06:05.745Z,99.90
2022-09-25T07:08:33.293Z,99.90
2022-09-25T07:11:01.972Z,99.90
2022-09-25T07:13:31.527Z,99.90
2022-09-25T07:16:15.205Z,99.90
2022-09-25T07:18:43.993Z,99.90
2022-09-25T07:21:14.122Z,99.90
2022-09-25T07:23:42.596Z,99.90
2022-09-25T07:26:16.323Z,99.90
2022-09-25T07:28:44.544Z,99.90
2022-09-25T07:31:17.444Z,99.90
2022-09-25T07:33:46.190Z,99.90
2022-09-25T07:36:15.080Z,99.90
2022-09-25T07:38:42.629Z,99.90
2022-09-25T07:41:11.463Z,99.90
2022-09-25T07:43:40.028Z,99.90
2022-09-25T07:46:07.632Z,99.90
2022-09-25T07:48:35.127Z,99.90
2022-09-25T07:51:04.515Z,99.90
2022-09-25T07:56:06.068Z,99.90
2022-09-25T07:58:37.934Z,99.90
2022-09-25T08:01:08.366Z,99.90
2022-09-25T08:03:36.050Z,99.90
2022-09-25T08:06:13.450Z,99.90
2022-09-25T08:08:42.211Z,99.90
2022-09-25T08:11:14.753Z,99.90
2022-09-25T08:16:14.076Z,99.90
2022-09-25T08:18:45.415Z,99.90
2022-09-25T08:21:15.653Z,99.90
2022-09-25T08:23:48.037Z,99.90
2022-09-25T08:26:21.084Z,99.90
2022-09-25T08:28:49.071Z,99.90
2022-09-25T08:31:17.834Z,99.90
2022-09-25T08:33:47.012Z,99.90
2022-09-25T08:36:16.166Z,99.90
2022-09-25T08:38:44.223Z,99.90
2022-09-25T08:41:18.071Z,99.90
2022-09-25T08:43:52.196Z,99.90
2022-09-25T08:46:53.794Z,99.90
2022-09-25T08:49:26.302Z,99.90
2022-09-25T08:51:59.670Z,99.90
2022-09-25T08:54:30.255Z,99.90
2022-09-25T08:57:40.195Z,99.90
2022-09-25T09:00:12.335Z,99.90
2022-09-25T09:02:43.888Z,99.90
2022-09-25T09:05:27.244Z,99.90
2022-09-25T09:08:02.081Z,99.90
2022-09-25T09:10:43.760Z,99.90
2022-09-25T09:13:17.544Z,99.90
2022-09-25T09:15:55.427Z,99.90
2022-09-25T09:18:28.121Z,99.90
2022-09-25T09:20:58.254Z,99.90
2022-09-25T09:23:36.304Z,99.90
2022-09-25T09:26:14.320Z,99.90
2022-09-25T09:28:59.601Z,99.90
2022-09-25T09:31:46.810Z,99.90
2022-09-25T09:35:04.018Z,99.90
2022-09-25T09:37:44.520Z,99.90
2022-09-25T09:40:24.852Z,99.90
2022-09-25T09:43:19.174Z,99.90
2022-09-25T09:45:54.312Z,99.90
2022-09-25T09:48:35.086Z,99.90
2022-09-25T09:51:18.597Z,99.90
2022-09-25T09:53:54.135Z,99.90
2022-09-25T09:56:32.304Z,99.90
2022-09-25T09:59:06.930Z,99.90
2022-09-25T10:01:41.749Z,99.90
2022-09-25T10:04:14.799Z,99.90
2022-09-25T10:07:13.917Z,99.90
2022-09-25T10:09:41.384Z,99.90
2022-09-25T10:12:32.866Z,99.90
2022-09-25T10:15:04.435Z,99.90
2022-09-25T10:17:33.403Z,99.90
2022-09-25T10:20:15.509Z,99.90
2022-09-25T10:22:46.663Z,99.90
2022-09-25T10:25:14.384Z,98.50
2022-09-25T10:27:48.026Z,97.30
2022-09-25T10:30:21.909Z,97.20
2022-09-25T10:33:02.083Z,97.60
2022-09-25T10:38:00.630Z,94.60
2022-09-25T10:40:33.497Z,95.40
2022-09-25T10:43:16.705Z,95.50
2022-09-25T10:48:43.109Z,93.90
2022-09-25T10:51:11.862Z,94.40
2022-09-25T10:53:39.829Z,94.20
2022-09-25T10:56:12.503Z,93.40
2022-09-25T10:58:58.091Z,93.60
2022-09-25T11:01:43.100Z,93.50
2022-09-25T11:04:22.388Z,92.70
2022-09-25T11:06:55.528Z,92.70
2022-09-25T11:09:25.621Z,92.90
2022-09-25T11:12:04.811Z,93.30
2022-09-25T11:14:35.283Z,92.90
2022-09-25T11:17:06.492Z,91.00
2022-09-25T11:19:36.778Z,91.20
2022-09-25T11:22:25.744Z,91.40
2022-09-25T11:25:11.716Z,92.70
2022-09-25T11:28:07.025Z,90.70
2022-09-25T11:30:55.060Z,90.70
2022-09-25T11:33:26.027Z,91.00
2022-09-25T11:36:12.279Z,90.50
2022-09-25T11:38:58.214Z,90.90
2022-09-25T11:41:40.921Z,92.10
2022-09-25T11:44:11.304Z,91.80
2022-09-25T11:46:56.661Z,93.20
2022-09-25T11:49:29.114Z,90.80
2022-09-25T11:52:11.344Z,91.60
2022-09-25T11:55:00.155Z,90.50
2022-09-25T11:57:54.399Z,92.50
2022-09-25T12:03:15.158Z,90.60
2022-09-25T12:08:24.408Z,85.80
2022-09-25T12:13:54.261Z,86.60
2022-09-25T12:16:23.576Z,84.60
2022-09-25T12:21:33.954Z,85.90
2022-09-25T12:24:15.120Z,83.10
2022-09-25T12:27:06.208Z,86.90
2022-09-25T12:30:09.044Z,87.50
2022-09-25T12:33:02.855Z,82.70
2022-09-25T12:35:47.224Z,83.30
2022-09-25T12:38:43.945Z,85.40
2022-09-25T12:41:29.954Z,82.50
2022-09-25T12:44:07.349Z,91.00
2022-09-25T12:46:44.261Z,81.80
2022-09-25T12:49:18.578Z,82.30
2022-09-25T12:51:50.752Z,80.70
2022-09-25T12:54:28.149Z,79.80
2022-09-25T12:57:23.343Z,79.00
2022-09-25T13:00:04.765Z,79.30
2022-09-25T13:02:59.411Z,76.30
2022-09-25T13:05:30.340Z,77.40
2022-09-25T13:08:03.887Z,78.50
2022-09-25T13:10:56.760Z,78.00
2022-09-25T13:13:27.943Z,78.10
2022-09-25T13:16:00.391Z,78.30
2022-09-25T13:18:30.102Z,77.50
2022-09-25T13:21:01.634Z,75.20
2022-09-25T13:23:35.605Z,76.30
2022-09-25T13:26:12.509Z,76.30
2022-09-25T13:29:01.954Z,76.30
2022-09-25T13:31:34.761Z,76.40
2022-09-25T13:34:12.342Z,76.10
2022-09-25T13:36:58.465Z,75.70
2022-09-25T13:39:46.145Z,75.20
2022-09-25T13:42:36.073Z,73.70
2022-09-25T13:45:21.616Z,74.80
2022-09-25T13:48:12.528Z,75.20
2022-09-25T13:50:42.957Z,75.20
2022-09-25T13:53:20.660Z,75.80
2022-09-25T13:55:49.480Z,75.50
2022-09-25T13:58:21.286Z,76.30
2022-09-25T14:00:58.640Z,76.10
2022-09-25T14:03:44.575Z,76.20
2022-09-25T14:06:25.986Z,74.60
2022-09-25T14:08:56.818Z,75.50
2022-09-25T14:11:32.355Z,75.90
2022-09-25T14:14:04.731Z,75.30
2022-09-25T14:16:35.514Z,75.40
2022-09-25T14:19:05.296Z,75.40
2022-09-25T14:21:36.374Z,75.70
2022-09-25T14:24:33.320Z,75.60
2022-09-25T14:27:01.913Z,74.60
2022-09-25T14:29:39.136Z,73.90
2022-09-25T14:32:54.029Z,74.20
2022-09-25T14:35:38.154Z,73.80
2022-09-25T14:38:36.854Z,73.00
2022-09-25T14:41:49.044Z,73.00
2022-09-25T14:44:42.204Z,73.20
2022-09-25T14:47:14.001Z,74.00
2022-09-25T14:49:46.535Z,73.90
2022-09-25T14:52:24.028Z,73.30
2022-09-25T14:54:55.169Z,72.80
2022-09-25T14:57:30.999Z,72.30
2022-09-25T15:00:04.723Z,72.10
2022-09-25T15:02:39.231Z,72.50
2022-09-25T15:05:37.690Z,72.40
2022-09-25T15:08:23.342Z,72.60
2022-09-25T15:11:21.864Z,72.40
2022-09-25T15:13:49.381Z,73.20
2022-09-25T15:16:42.665Z,73.70
2022-09-25T15:19:44.754Z,72.20
2022-09-25T15:22:23.740Z,71.90
2022-09-25T15:25:01.561Z,72.70
2022-09-25T15:27:29.994Z,72.80
2022-09-25T15:30:00.241Z,71.60
2022-09-25T15:32:39.390Z,72.50
2022-09-25T15:35:15.106Z,72.90
2022-09-25T15:37:42.688Z,73.20
2022-09-25T15:40:15.979Z,72.70
2022-09-25T15:42:48.184Z,72.90
2022-09-25T15:45:51.968Z,73.50
2022-09-25T15:48:31.210Z,73.30
2022-09-25T15:51:21.186Z,72.90
2022-09-25T15:53:55.025Z,72.70
2022-09-25T15:56:28.934Z,73.30
2022-09-25T15:59:13.748Z,73.70
2022-09-25T16:02:25.776Z,73.80
2022-09-25T16:04:54.370Z,73.70
2022-09-25T16:07:29.264Z,74.00
2022-09-25T16:10:14.304Z,73.80
2022-09-25T16:12:46.509Z,73.90
2022-09-25T16:15:26.884Z,73.80
2022-09-25T16:18:18.564Z,73.50
2022-09-25T16:23:29.970Z,73.50
2022-09-25T16:25:58.595Z,73.30
2022-09-25T16:28:28.883Z,73.90
2022-09-25T16:31:08.485Z,74.40
2022-09-25T16:33:40.175Z,74.80
2022-09-25T16:36:17.466Z,75.10
2022-09-25T16:39:13.338Z,75.40
2022-09-25T16:41:46.594Z,75.50
2022-09-25T16:44:38.143Z,75.70
2022-09-25T16:47:14.417Z,75.60
2022-09-25T16:49:43.624Z,75.60
2022-09-25T16:52:20.793Z,76.50
2022-09-25T16:54:54.232Z,77.40
2022-09-25T16:57:27.709Z,76.50
2022-09-25T17:02:33.152Z,79.70
2022-09-25T17:05:06.934Z,79.50
2022-09-25T17:07:34.403Z,78.30
2022-09-25T17:10:02.274Z,78.20
2022-09-25T17:12:31.298Z,77.90
2022-09-25T17:17:26.824Z,81.80
2022-09-25T17:19:54.324Z,81.00
2022-09-25T17:25:01.625Z,79.10
2022-09-25T17:29:56.831Z,82.90
2022-09-25T17:32:24.264Z,82.80
2022-09-25T17:34:51.893Z,82.90
2022-09-25T17:37:19.375Z,84.50
2022-09-25T17:39:49.230Z,80.50
2022-09-25T17:44:47.389Z,81.00
2022-09-25T17:47:15.199Z,81.80
2022-09-25T17:52:16.660Z,83.20
2022-09-25T17:59:39.931Z,84.50
2022-09-25T18:02:14.727Z,88.40
2022-09-25T18:07:12.116Z,88.60
2022-09-25T18:09:39.890Z,87.00
2022-09-25T18:12:08.538Z,87.00
2022-09-25T18:17:03.748Z,90.80
2022-09-25T18:24:56.549Z,91.50
2022-09-25T18:27:27.467Z,88.70
2022-09-25T18:34:52.126Z,91.30
2022-09-25T18:37:19.656Z,91.90
2022-09-25T18:39:48.106Z,92.60
2022-09-25T18:44:43.791Z,90.00
2022-09-25T18:47:11.624Z,93.10
2022-09-25T18:52:19.334Z,93.20
2022-09-25T18:54:47.650Z,90.40
2022-09-25T18:59:44.569Z,90.50
2022-09-25T19:02:19.903Z,93.80
2022-09-25T19:04:52.060Z,90.70
2022-09-25T19:09:47.208Z,93.70
2022-09-25T19:12:17.067Z,92.70
2022-09-25T19:14:46.291Z,93.10
2022-09-25T19:17:14.976Z,91.20
2022-09-25T19:22:19.577Z,91.20
2022-09-25T19:24:48.827Z,91.30
2022-09-25T19:27:17.572Z,91.30
2022-09-25T19:29:45.608Z,91.50
2022-09-25T19:32:15.165Z,92.40
2022-09-25T19:39:57.503Z,91.40
2022-09-25T19:42:27.482Z,91.70
2022-09-25T19:44:57.595Z,91.70
2022-09-25T19:47:28.672Z,91.80
2022-09-25T19:49:56.176Z,92.20
2022-09-25T19:54:51.729Z,94.10
2022-09-25T19:59:49.237Z,94.30
2022-09-25T20:02:17.030Z,93.60
2022-09-25T20:07:17.258Z,92.30
2022-09-25T20:09:44.742Z,92.60
2022-09-25T20:14:40.620Z,92.50
2022-09-25T20:17:10.035Z,93.70
2022-09-25T20:19:37.814Z,92.60
2022-09-25T20:22:05.853Z,93.00
2022-09-25T20:24:33.744Z,92.70
2022-09-25T20:27:01.195Z,92.70
2022-09-25T20:29:29.106Z,92.70
2022-09-25T20:31:56.865Z,92.70
2022-09-25T20:34:24.294Z,92.70
2022-09-25T20:36:51.772Z,92.80
2022-09-25T20:39:21.467Z,92.80
2022-09-25T20:41:50.206Z,92.90
2022-09-25T20:44:17.673Z,92.90
2022-09-25T20:46:45.344Z,93.00
2022-09-25T20:49:13.195Z,93.10
2022-09-25T20:51:41.231Z,93.10
2022-09-25T20:54:10.106Z,93.20
2022-09-25T20:56:43.521Z,93.20
2022-09-25T20:59:12.035Z,93.20
2022-09-25T21:01:43.722Z,93.30
2022-09-25T21:04:11.351Z,93.30
2022-09-25T21:06:41.256Z,93.40
2022-09-25T21:09:17.236Z,93.50
2022-09-25T21:11:44.817Z,93.50
2022-09-25T21:14:18.760Z,93.60
2022-09-25T21:16:47.298Z,93.70
2022-09-25T21:19:16.573Z,93.70
2022-09-25T21:21:44.793Z,93.80
2022-09-25T21:24:15.724Z,93.80
2022-09-25T21:26:43.681Z,94.00
2022-09-25T21:29:12.523Z,94.00
2022-09-25T21:31:48.213Z,94.10
2022-09-25T21:34:17.733Z,94.40
2022-09-25T21:36:46.592Z,94.40
2022-09-25T21:39:14.639Z,94.50
2022-09-25T21:41:42.219Z,95.00
2022-09-25T21:44:14.798Z,95.00
2022-09-25T21:49:15.871Z,94.80
2022-09-25T21:51:44.590Z,95.00
2022-09-25T21:54:13.776Z,95.10
2022-09-25T21:56:46.329Z,95.40
2022-09-25T21:59:14.308Z,95.30
2022-09-25T22:01:42.315Z,95.40
2022-09-25T22:04:12.685Z,95.40
2022-09-25T22:06:44.370Z,95.50
2022-09-25T22:09:18.508Z,95.70
2022-09-25T22:11:47.619Z,95.50
2022-09-25T22:14:16.533Z,95.70
2022-09-25T22:16:47.555Z,95.70
2022-09-25T22:19:25.157Z,95.80
2022-09-25T22:21:54.692Z,96.00
2022-09-25T22:24:22.659Z,95.80
2022-09-25T22:26:51.830Z,95.80
2022-09-25T22:29:20.816Z,95.50
2022-09-25T22:31:49.072Z,95.80
2022-09-25T22:34:20.718Z,95.90
2022-09-25T22:36:48.965Z,95.90
2022-09-25T22:39:18.528Z,95.80
2022-09-25T22:41:52.643Z,95.80
2022-09-25T22:44:20.927Z,95.90
2022-09-25T22:46:48.406Z,96.00
2022-09-25T22:49:16.054Z,96.00
2022-09-25T22:51:43.560Z,96.00
2022-09-25T22:54:13.737Z,96.00
2022-09-25T22:56:41.700Z,95.90
2022-09-25T22:59:13.062Z,95.80
2022-09-25T23:01:45.169Z,96.00
2022-09-25T23:04:15.420Z,95.80
2022-09-25T23:06:43.000Z,96.00
2022-09-25T23:09:16.463Z,96.90
2022-09-25T23:14:19.938Z,96.00
2022-09-25T23:16:49.426Z,96.10
2022-09-25T23:19:17.319Z,96.20
2022-09-25T23:21:44.807Z,96.20
2022-09-25T23:24:14.867Z,96.00
2022-09-25T23:26:43.142Z,96.10
2022-09-25T23:29:14.742Z,96.20
2022-09-25T23:31:42.721Z,96.20
2022-09-25T23:34:10.879Z,96.20
2022-09-25T23:36:38.575Z,96.20
2022-09-25T23:39:08.750Z,96.20
2022-09-25T23:41:40.256Z,96.20
2022-09-25T23:44:10.078Z,96.10
2022-09-25T23:46:42.605Z,96.30
2022-09-25T23:49:10.957Z,96.20
2022-09-25T23:51:38.689Z,96.20
2022-09-25T23:54:06.943Z,96.30
2022-09-25T23:56:34.980Z,96.20
2022-09-25T23:59:03.695Z,96.10
